Delray Beach, FL

1:20 AM EDT on August 20, 2014 (GMT -0400)
Pompano Beach | Change Station
CLOSE
Current Station
Airport
Location: Pompano Beach,
Elevation: 20 ft
Nearby Weather Stations

Elev 20 ft 26.25 °N, 80.11 °W | Updated 27 minutes ago

Partly Cloudy
Partly Cloudy
85 °F
Feels Like 93 °F
N
6
Wind Variable Wind from South
Gusts 13 mph

Today
High -- | Low -- °F
--% Chance of Precip.
Yesterday
High -- | Low -- °F
Precip. -- in
6:54 AM 7:52 PM
Waning Crescent, 24% visible
Pressure 30.03 in
Visibility 10.0 miles
Clouds
Heat Index 93 °F
Dew Point 75 °F
Humidity 72%
Rainfall 0.00 in
Snow Depth Not available.
UV Not available.
Pollen 5.00 out of 12
Air Quality Not available.
Flu Activity Not available.
METAR KPMP 200453Z AUTO 17005KT 10SM 29/24 A3003 RMK AO2 SLP169 T02940239 403330267 $

More Conditions Fewer Conditions

Pressure 30.03 in
Visibility 10.0 miles
Clouds
Heat Index 93 °F
Dew Point 75 °F
Humidity 72%
Rainfall 0.00 in
Snow Depth Not available.
UV Not available.
Pollen 5.00 out of 12
Air Quality Not available.
Flu Activity Not available.
METAR KPMP 200453Z AUTO 17005KT 10SM 29/24 A3003 RMK AO2 SLP169 T02940239 403330267 $

More Conditions Fewer Conditions

10-Day Weather Forecast

Almanac

Astronomy

Aug. 20, 2014 Rise Set
Actual Time 6:54 AM EDT 7:52 PM EDT
Civil Twilight 6:30 AM EDT 8:16 PM EDT
Nautical Twilight 6:02 AM EDT 8:44 PM EDT
Astronomical Twilight 5:33 AM EDT 9:13 PM EDT
Moon 2:43 AM EDT 4:26 PM EDT
Length of Visible Light 13h 45m
Length of Day
12h 57m
Tomorrow will be 1m 24s shorter.
Waning Crescent, 24% of the Moon is Illuminated
Today
Waning Crescent
Aug 25
New
Sep 2
First Quarter
Sep 8
Full
Sep 15
Last Quarter

Today's Extremes

State Highs State Lows

Community

WunderPhotos

Upload Photos

1,745,592 photos uploaded!

Nearby

Air Quality

  Air Quality AQ Index Pollutant
Yesterday Good
OZONE
Tuesday Moderate
PM2.5
Tuesday Good
OZONE
Wednesday Moderate
PM2.5
Wednesday Good
OZONE
Thursday Moderate
PM2.5
Thursday Good
OZONE

Snow Depth

Station Depth Elevation
No new snow has been reported.

Earthquake Activity

City Distance Mag. Time & Date
No recent earthquake activity has been reported nearby.
Minimum magnitude displayed is 2.5.

Coastal Water Temperatures

Place Temperature
Lake Worth, FL 87.1 °F
Virginia Key, FL 89.1 °F

Nearby Weather Stations